sensor_id;sensor_type;location;lat;lon;timestamp;pressure;altitude;pressure_sealevel;temperature;humidity
61870;BME280;47810;42.264;23.826;2023-09-18T00:01:47;94364.19;;;17.08;91.30
61870;BME280;47810;42.264;23.826;2023-09-18T00:04:13;94362.75;;;17.04;91.67
61870;BME280;47810;42.264;23.826;2023-09-18T00:06:39;94360.94;;;17.04;91.78
61870;BME280;47810;42.264;23.826;2023-09-18T00:09:04;94361.69;;;17.06;92.21
61870;BME280;47810;42.264;23.826;2023-09-18T00:11:32;94361.94;;;17.03;92.40
61870;BME280;47810;42.264;23.826;2023-09-18T00:13:57;94367.50;;;17.00;92.28
61870;BME280;47810;42.264;23.826;2023-09-18T00:16:23;94360.84;;;17.06;91.98
61870;BME280;47810;42.264;23.826;2023-09-18T00:18:50;94362.56;;;16.95;92.34
61870;BME280;47810;42.264;23.826;2023-09-18T00:21:15;94355.56;;;16.83;91.78
61870;BME280;47810;42.264;23.826;2023-09-18T00:23:41;94359.91;;;16.95;92.47
61870;BME280;47810;42.264;23.826;2023-09-18T00:26:07;94348.25;;;16.96;92.36
61870;BME280;47810;42.264;23.826;2023-09-18T00:28:33;94349.22;;;16.95;92.89
61870;BME280;47810;42.264;23.826;2023-09-18T00:30:58;94345.69;;;16.95;92.92
61870;BME280;47810;42.264;23.826;2023-09-18T00:33:24;94350.47;;;16.80;92.60
61870;BME280;47810;42.264;23.826;2023-09-18T00:35:50;94347.34;;;16.75;92.42
61870;BME280;47810;42.264;23.826;2023-09-18T00:38:16;94344.41;;;16.89;93.11
61870;BME280;47810;42.264;23.826;2023-09-18T00:40:42;94345.75;;;16.84;93.49
61870;BME280;47810;42.264;23.826;2023-09-18T00:43:08;94350.72;;;16.77;92.92
61870;BME280;47810;42.264;23.826;2023-09-18T00:45:35;94339.69;;;16.70;93.63
61870;BME280;47810;42.264;23.826;2023-09-18T00:48:03;94339.56;;;16.72;93.98
61870;BME280;47810;42.264;23.826;2023-09-18T00:50:29;94329.13;;;16.69;93.29
61870;BME280;47810;42.264;23.826;2023-09-18T00:52:54;94328.31;;;16.80;93.33
61870;BME280;47810;42.264;23.826;2023-09-18T00:55:20;94332.53;;;16.71;93.25
61870;BME280;47810;42.264;23.826;2023-09-18T00:57:46;94331.34;;;16.64;93.43
61870;BME280;47810;42.264;23.826;2023-09-18T01:00:12;94332.66;;;16.69;93.66
61870;BME280;47810;42.264;23.826;2023-09-18T01:02:43;94322.84;;;16.70;93.07
61870;BME280;47810;42.264;23.826;2023-09-18T01:05:10;94328.19;;;16.70;93.00
61870;BME280;47810;42.264;23.826;2023-09-18T01:07:36;94327.19;;;16.71;93.31
61870;BME280;47810;42.264;23.826;2023-09-18T01:10:01;94332.94;;;16.55;92.74
61870;BME280;47810;42.264;23.826;2023-09-18T01:15:15;94330.63;;;16.62;93.42
61870;BME280;47810;42.264;23.826;2023-09-18T01:17:42;94332.06;;;16.77;93.09
61870;BME280;47810;42.264;23.826;2023-09-18T01:20:09;94334.72;;;16.77;93.11
61870;BME280;47810;42.264;23.826;2023-09-18T01:22:35;94330.59;;;16.73;92.87
61870;BME280;47810;42.264;23.826;2023-09-18T01:25:01;94331.44;;;16.73;92.66
61870;BME280;47810;42.264;23.826;2023-09-18T01:27:28;94329.78;;;16.61;92.98
61870;BME280;47810;42.264;23.826;2023-09-18T01:29:54;94335.75;;;16.53;93.29
61870;BME280;47810;42.264;23.826;2023-09-18T01:32:19;94331.34;;;16.52;93.25
61870;BME280;47810;42.264;23.826;2023-09-18T01:34:50;94335.84;;;16.52;93.92
61870;BME280;47810;42.264;23.826;2023-09-18T01:37:18;94331.59;;;16.61;93.54
61870;BME280;47810;42.264;23.826;2023-09-18T01:39:46;94337.91;;;16.60;92.97
61870;BME280;47810;42.264;23.826;2023-09-18T01:42:13;94338.66;;;16.50;92.35
61870;BME280;47810;42.264;23.826;2023-09-18T01:44:39;94340.34;;;16.40;93.03
61870;BME280;47810;42.264;23.826;2023-09-18T01:47:06;94341.91;;;16.54;93.71
61870;BME280;47810;42.264;23.826;2023-09-18T01:49:35;94334.97;;;16.63;92.54
61870;BME280;47810;42.264;23.826;2023-09-18T01:52:02;94334.00;;;16.64;93.08
61870;BME280;47810;42.264;23.826;2023-09-18T01:54:30;94338.75;;;16.60;92.35
61870;BME280;47810;42.264;23.826;2023-09-18T01:56:55;94337.38;;;16.66;92.68
61870;BME280;47810;42.264;23.826;2023-09-18T01:59:21;94342.97;;;16.63;92.56
61870;BME280;47810;42.264;23.826;2023-09-18T02:01:49;94346.63;;;16.62;92.52
61870;BME280;47810;42.264;23.826;2023-09-18T02:04:14;94349.16;;;16.63;92.68
61870;BME280;47810;42.264;23.826;2023-09-18T02:06:44;94345.03;;;16.59;93.19
61870;BME280;47810;42.264;23.826;2023-09-18T02:09:09;94343.94;;;16.62;93.30
61870;BME280;47810;42.264;23.826;2023-09-18T02:11:39;94347.09;;;16.56;92.99
61870;BME280;47810;42.264;23.826;2023-09-18T02:14:05;94350.50;;;16.58;92.93
61870;BME280;47810;42.264;23.826;2023-09-18T02:16:32;94347.84;;;16.58;93.10
61870;BME280;47810;42.264;23.826;2023-09-18T02:18:58;94344.94;;;16.61;92.87
61870;BME280;47810;42.264;23.826;2023-09-18T02:21:23;94342.84;;;16.64;93.20
61870;BME280;47810;42.264;23.826;2023-09-18T02:23:49;94351.84;;;16.63;93.18
61870;BME280;47810;42.264;23.826;2023-09-18T02:26:16;94347.34;;;16.52;93.94
61870;BME280;47810;42.264;23.826;2023-09-18T02:28:42;94354.66;;;16.50;93.16
61870;BME280;47810;42.264;23.826;2023-09-18T02:31:08;94347.69;;;16.59;93.03
61870;BME280;47810;42.264;23.826;2023-09-18T02:33:33;94347.09;;;16.56;93.26
61870;BME280;47810;42.264;23.826;2023-09-18T02:35:59;94351.97;;;16.50;93.63
61870;BME280;47810;42.264;23.826;2023-09-18T02:38:28;94352.72;;;16.41;93.74
61870;BME280;47810;42.264;23.826;2023-09-18T02:40:55;94352.69;;;16.52;93.90
61870;BME280;47810;42.264;23.826;2023-09-18T02:43:22;94355.94;;;16.56;93.83
61870;BME280;47810;42.264;23.826;2023-09-18T02:45:48;94350.75;;;16.54;93.52
61870;BME280;47810;42.264;23.826;2023-09-18T02:48:13;94351.25;;;16.48;94.24
61870;BME280;47810;42.264;23.826;2023-09-18T02:50:39;94359.97;;;16.50;93.55
61870;BME280;47810;42.264;23.826;2023-09-18T02:53:05;94349.31;;;16.50;93.38
61870;BME280;47810;42.264;23.826;2023-09-18T02:55:31;94358.25;;;16.49;93.04
61870;BME280;47810;42.264;23.826;2023-09-18T02:58:01;94352.69;;;16.52;92.04
61870;BME280;47810;42.264;23.826;2023-09-18T03:00:27;94358.00;;;16.52;93.19
61870;BME280;47810;42.264;23.826;2023-09-18T03:02:53;94352.22;;;16.47;92.61
61870;BME280;47810;42.264;23.826;2023-09-18T03:05:18;94352.09;;;16.49;92.36
61870;BME280;47810;42.264;23.826;2023-09-18T03:07:44;94353.66;;;16.40;91.73
61870;BME280;47810;42.264;23.826;2023-09-18T03:10:10;94356.44;;;16.61;91.92
61870;BME280;47810;42.264;23.826;2023-09-18T03:12:39;94353.16;;;16.58;91.62
61870;BME280;47810;42.264;23.826;2023-09-18T03:15:05;94356.81;;;16.57;91.19
61870;BME280;47810;42.264;23.826;2023-09-18T03:17:32;94361.16;;;16.58;91.23
61870;BME280;47810;42.264;23.826;2023-09-18T03:19:58;94362.59;;;16.62;90.61
61870;BME280;47810;42.264;23.826;2023-09-18T03:22:25;94365.25;;;16.73;90.59
61870;BME280;47810;42.264;23.826;2023-09-18T03:24:51;94359.72;;;16.76;90.62
61870;BME280;47810;42.264;23.826;2023-09-18T03:27:17;94360.91;;;16.61;90.87
61870;BME280;47810;42.264;23.826;2023-09-18T03:29:42;94353.53;;;16.53;90.28
61870;BME280;47810;42.264;23.826;2023-09-18T03:32:08;94364.56;;;16.82;90.62
61870;BME280;47810;42.264;23.826;2023-09-18T03:34:38;94362.84;;;16.81;90.12
61870;BME280;47810;42.264;23.826;2023-09-18T03:37:03;94354.84;;;16.70;90.71
61870;BME280;47810;42.264;23.826;2023-09-18T03:39:29;94349.75;;;16.67;91.21
61870;BME280;47810;42.264;23.826;2023-09-18T03:41:54;94343.38;;;16.47;91.68
61870;BME280;47810;42.264;23.826;2023-09-18T03:44:20;94346.50;;;16.52;91.39
61870;BME280;47810;42.264;23.826;2023-09-18T03:46:48;94338.31;;;16.44;91.24
61870;BME280;47810;42.264;23.826;2023-09-18T03:49:14;94337.34;;;16.11;93.25
61870;BME280;47810;42.264;23.826;2023-09-18T03:51:39;94341.13;;;16.09;93.83
61870;BME280;47810;42.264;23.826;2023-09-18T03:54:06;94340.63;;;16.15;93.35
61870;BME280;47810;42.264;23.826;2023-09-18T03:56:33;94347.75;;;16.14;93.52
61870;BME280;47810;42.264;23.826;2023-09-18T03:58:59;94339.66;;;16.16;92.93
61870;BME280;47810;42.264;23.826;2023-09-18T04:01:26;94339.91;;;16.13;92.52
61870;BME280;47810;42.264;23.826;2023-09-18T04:03:52;94332.13;;;16.32;92.79
61870;BME280;47810;42.264;23.826;2023-09-18T04:06:20;94336.13;;;16.26;92.60
61870;BME280;47810;42.264;23.826;2023-09-18T04:08:46;94330.19;;;16.23;92.45
61870;BME280;47810;42.264;23.826;2023-09-18T04:11:12;94322.16;;;16.45;92.33
61870;BME280;47810;42.264;23.826;2023-09-18T04:13:37;94326.72;;;16.66;91.02
61870;BME280;47810;42.264;23.826;2023-09-18T04:16:03;94322.66;;;16.50;91.09
61870;BME280;47810;42.264;23.826;2023-09-18T04:18:29;94315.63;;;16.49;91.38
61870;BME280;47810;42.264;23.826;2023-09-18T04:20:55;94318.97;;;16.63;91.49
61870;BME280;47810;42.264;23.826;2023-09-18T04:23:21;94319.16;;;16.39;91.49
61870;BME280;47810;42.264;23.826;2023-09-18T04:25:48;94316.78;;;16.24;91.80
61870;BME280;47810;42.264;23.826;2023-09-18T04:28:15;94321.47;;;16.21;91.63
61870;BME280;47810;42.264;23.826;2023-09-18T04:30:41;94315.50;;;16.40;91.90
61870;BME280;47810;42.264;23.826;2023-09-18T04:33:06;94322.03;;;16.58;91.30
61870;BME280;47810;42.264;23.826;2023-09-18T04:35:33;94326.28;;;16.49;91.31
61870;BME280;47810;42.264;23.826;2023-09-18T04:37:59;94328.94;;;16.61;91.47
61870;BME280;47810;42.264;23.826;2023-09-18T04:40:25;94329.69;;;16.51;90.82
61870;BME280;47810;42.264;23.826;2023-09-18T04:42:52;94333.56;;;16.47;91.15
61870;BME280;47810;42.264;23.826;2023-09-18T04:45:18;94338.41;;;16.42;90.69
61870;BME280;47810;42.264;23.826;2023-09-18T04:47:44;94345.81;;;16.39;91.18
61870;BME280;47810;42.264;23.826;2023-09-18T04:50:09;94346.66;;;16.39;91.13
61870;BME280;47810;42.264;23.826;2023-09-18T04:52:38;94350.28;;;16.38;91.11
61870;BME280;47810;42.264;23.826;2023-09-18T04:55:07;94347.84;;;16.46;92.20
61870;BME280;47810;42.264;23.826;2023-09-18T04:57:33;94344.38;;;16.35;92.05
61870;BME280;47810;42.264;23.826;2023-09-18T04:59:59;94345.22;;;16.35;92.28
61870;BME280;47810;42.264;23.826;2023-09-18T05:02:25;94343.53;;;16.34;92.28
61870;BME280;47810;42.264;23.826;2023-09-18T05:04:51;94343.00;;;16.40;91.85
61870;BME280;47810;42.264;23.826;2023-09-18T05:07:16;94348.81;;;16.45;92.49
61870;BME280;47810;42.264;23.826;2023-09-18T05:09:42;94340.22;;;16.42;92.13
61870;BME280;47810;42.264;23.826;2023-09-18T05:12:08;94340.34;;;16.40;91.02
61870;BME280;47810;42.264;23.826;2023-09-18T05:14:39;94336.00;;;16.39;92.05
61870;BME280;47810;42.264;23.826;2023-09-18T05:17:05;94338.31;;;16.44;92.28
61870;BME280;47810;42.264;23.826;2023-09-18T05:19:30;94339.75;;;16.48;92.25
61870;BME280;47810;42.264;23.826;2023-09-18T05:21:56;94347.13;;;16.44;93.09
61870;BME280;47810;42.264;23.826;2023-09-18T05:24:21;94333.56;;;16.47;92.18
61870;BME280;47810;42.264;23.826;2023-09-18T05:26:52;94331.34;;;16.52;91.99
61870;BME280;47810;42.264;23.826;2023-09-18T05:29:18;94337.25;;;16.79;91.93
61870;BME280;47810;42.264;23.826;2023-09-18T05:31:44;94340.00;;;16.88;90.82
61870;BME280;47810;42.264;23.826;2023-09-18T05:34:11;94332.53;;;16.71;90.81
61870;BME280;47810;42.264;23.826;2023-09-18T05:36:36;94331.34;;;16.75;90.20
61870;BME280;47810;42.264;23.826;2023-09-18T05:39:02;94333.03;;;16.76;89.58
61870;BME280;47810;42.264;23.826;2023-09-18T05:41:28;94341.63;;;16.68;88.61
61870;BME280;47810;42.264;23.826;2023-09-18T05:43:55;94344.78;;;16.62;88.39
61870;BME280;47810;42.264;23.826;2023-09-18T05:46:20;94338.13;;;16.79;88.61
61870;BME280;47810;42.264;23.826;2023-09-18T05:48:46;94340.81;;;16.79;88.21
61870;BME280;47810;42.264;23.826;2023-09-18T05:51:11;94340.16;;;16.87;88.07
61870;BME280;47810;42.264;23.826;2023-09-18T05:53:37;94339.50;;;17.06;88.04
61870;BME280;47810;42.264;23.826;2023-09-18T05:56:03;94351.09;;;17.16;87.78
61870;BME280;47810;42.264;23.826;2023-09-18T05:58:30;94353.06;;;17.03;87.16
61870;BME280;47810;42.264;23.826;2023-09-18T06:00:58;94361.59;;;16.96;87.19
61870;BME280;47810;42.264;23.826;2023-09-18T06:03:26;94357.66;;;17.12;87.37
61870;BME280;47810;42.264;23.826;2023-09-18T06:05:52;94362.50;;;17.07;87.47
61870;BME280;47810;42.264;23.826;2023-09-18T06:08:18;94363.28;;;16.97;87.43
61870;BME280;47810;42.264;23.826;2023-09-18T06:10:44;94362.75;;;17.04;87.19
61870;BME280;47810;42.264;23.826;2023-09-18T06:13:10;94357.56;;;17.02;87.22
61870;BME280;47810;42.264;23.826;2023-09-18T06:15:41;94366.28;;;17.04;87.20
61870;BME280;47810;42.264;23.826;2023-09-18T06:18:07;94373.00;;;16.98;86.97
61870;BME280;47810;42.264;23.826;2023-09-18T06:20:32;94373.94;;;16.97;86.61
61870;BME280;47810;42.264;23.826;2023-09-18T06:22:58;94377.25;;;16.90;86.62
61870;BME280;47810;42.264;23.826;2023-09-18T06:25:24;94374.19;;;16.94;87.04
61870;BME280;47810;42.264;23.826;2023-09-18T06:27:50;94368.25;;;16.91;86.86
61870;BME280;47810;42.264;23.826;2023-09-18T06:30:16;94377.59;;;16.85;86.85
61870;BME280;47810;42.264;23.826;2023-09-18T06:32:41;94379.69;;;17.14;87.50
61870;BME280;47810;42.264;23.826;2023-09-18T06:35:07;94375.44;;;17.22;87.40
61870;BME280;47810;42.264;23.826;2023-09-18T06:37:33;94374.09;;;17.28;86.15
61870;BME280;47810;42.264;23.826;2023-09-18T06:39:59;94370.19;;;17.32;86.51
61870;BME280;47810;42.264;23.826;2023-09-18T06:42:25;94367.75;;;17.29;86.17
61870;BME280;47810;42.264;23.826;2023-09-18T06:44:50;94365.56;;;17.34;86.30
61870;BME280;47810;42.264;23.826;2023-09-18T06:47:16;94363.00;;;17.33;86.50
61870;BME280;47810;42.264;23.826;2023-09-18T06:49:41;94372.28;;;17.50;85.57
61870;BME280;47810;42.264;23.826;2023-09-18T06:52:07;94370.22;;;17.53;85.11
61870;BME280;47810;42.264;23.826;2023-09-18T06:54:33;94377.56;;;17.61;85.46
61870;BME280;47810;42.264;23.826;2023-09-18T06:56:59;94368.81;;;17.59;85.51
61870;BME280;47810;42.264;23.826;2023-09-18T06:59:24;94373.31;;;17.58;85.22
61870;BME280;47810;42.264;23.826;2023-09-18T07:01:50;94365.84;;;17.73;84.69
61870;BME280;47810;42.264;23.826;2023-09-18T07:04:15;94365.53;;;17.87;84.60
61870;BME280;47810;42.264;23.826;2023-09-18T07:06:41;94366.97;;;18.22;82.41
61870;BME280;47810;42.264;23.826;2023-09-18T07:09:06;94366.41;;;17.98;82.35
61870;BME280;47810;42.264;23.826;2023-09-18T07:11:33;94363.41;;;18.12;82.78
61870;BME280;47810;42.264;23.826;2023-09-18T07:13:58;94367.94;;;18.52;81.66
61870;BME280;47810;42.264;23.826;2023-09-18T07:16:24;94363.56;;;18.51;78.87
61870;BME280;47810;42.264;23.826;2023-09-18T07:18:50;94363.69;;;18.39;79.59
61870;BME280;47810;42.264;23.826;2023-09-18T07:21:15;94361.19;;;18.57;80.14
61870;BME280;47810;42.264;23.826;2023-09-18T07:23:41;94369.97;;;18.69;79.96
61870;BME280;47810;42.264;23.826;2023-09-18T07:26:07;94369.59;;;18.83;81.67
61870;BME280;47810;42.264;23.826;2023-09-18T07:28:32;94368.91;;;18.81;80.66
61870;BME280;47810;42.264;23.826;2023-09-18T07:31:04;94368.38;;;18.88;79.79
61870;BME280;47810;42.264;23.826;2023-09-18T07:33:29;94361.56;;;18.83;79.59
61870;BME280;47810;42.264;23.826;2023-09-18T07:35:55;94365.56;;;18.99;78.45
61870;BME280;47810;42.264;23.826;2023-09-18T07:38:20;94359.66;;;19.05;78.33
61870;BME280;47810;42.264;23.826;2023-09-18T07:40:46;94364.16;;;18.95;79.40
61870;BME280;47810;42.264;23.826;2023-09-18T07:43:12;94367.78;;;18.94;79.26
61870;BME280;47810;42.264;23.826;2023-09-18T07:45:38;94369.09;;;19.09;78.68
61870;BME280;47810;42.264;23.826;2023-09-18T07:48:05;94366.59;;;19.37;78.27
61870;BME280;47810;42.264;23.826;2023-09-18T07:50:31;94370.84;;;19.68;76.25
61870;BME280;47810;42.264;23.826;2023-09-18T07:52:58;94371.47;;;19.90;77.38
61870;BME280;47810;42.264;23.826;2023-09-18T07:55:24;94365.78;;;20.12;74.84
61870;BME280;47810;42.264;23.826;2023-09-18T07:57:51;94375.88;;;20.38;74.39
61870;BME280;47810;42.264;23.826;2023-09-18T08:00:17;94372.47;;;20.45;73.14
61870;BME280;47810;42.264;23.826;2023-09-18T08:02:43;94372.75;;;20.42;73.20
61870;BME280;47810;42.264;23.826;2023-09-18T08:05:09;94369.03;;;20.63;74.08
61870;BME280;47810;42.264;23.826;2023-09-18T08:07:36;94368.69;;;20.76;73.27
61870;BME280;47810;42.264;23.826;2023-09-18T08:10:02;94361.59;;;21.02;70.52
61870;BME280;47810;42.264;23.826;2023-09-18T08:12:33;94366.16;;;21.20;72.32
61870;BME280;47810;42.264;23.826;2023-09-18T08:14:59;94360.19;;;21.26;70.61
61870;BME280;47810;42.264;23.826;2023-09-18T08:17:25;94363.38;;;21.39;70.22
61870;BME280;47810;42.264;23.826;2023-09-18T08:19:51;94361.34;;;21.59;70.29
61870;BME280;47810;42.264;23.826;2023-09-18T08:22:17;94358.34;;;21.62;68.77
61870;BME280;47810;42.264;23.826;2023-09-18T08:24:44;94360.03;;;21.81;67.81
61870;BME280;47810;42.264;23.826;2023-09-18T08:27:11;94358.19;;;21.63;67.47
61870;BME280;47810;42.264;23.826;2023-09-18T08:29:37;94352.91;;;21.72;68.10
61870;BME280;47810;42.264;23.826;2023-09-18T08:32:02;94357.69;;;21.86;67.78
61870;BME280;47810;42.264;23.826;2023-09-18T08:34:28;94343.91;;;22.07;67.88
61870;BME280;47810;42.264;23.826;2023-09-18T08:36:54;94342.06;;;22.25;66.14
61870;BME280;47810;42.264;23.826;2023-09-18T08:39:19;94337.28;;;22.45;66.01
61870;BME280;47810;42.264;23.826;2023-09-18T08:41:45;94338.72;;;22.66;66.89
61870;BME280;47810;42.264;23.826;2023-09-18T08:44:14;94333.75;;;22.87;65.43
61870;BME280;47810;42.264;23.826;2023-09-18T08:46:40;94332.34;;;23.09;64.13
61870;BME280;47810;42.264;23.826;2023-09-18T08:49:05;94326.81;;;23.19;63.48
61870;BME280;47810;42.264;23.826;2023-09-18T08:51:33;94321.75;;;23.16;61.40
61870;BME280;47810;42.264;23.826;2023-09-18T08:53:58;94323.78;;;23.30;62.37
61870;BME280;47810;42.264;23.826;2023-09-18T08:56:24;94325.97;;;23.43;61.12
61870;BME280;47810;42.264;23.826;2023-09-18T08:58:50;94327.50;;;23.62;59.54
61870;BME280;47810;42.264;23.826;2023-09-18T09:01:18;94328.56;;;23.77;59.66
61870;BME280;47810;42.264;23.826;2023-09-18T09:03:44;94329.25;;;23.79;59.23
61870;BME280;47810;42.264;23.826;2023-09-18T09:06:11;94322.97;;;24.11;59.70
61870;BME280;47810;42.264;23.826;2023-09-18T09:08:36;94324.13;;;24.17;59.26
61870;BME280;47810;42.264;23.826;2023-09-18T09:11:02;94323.78;;;24.20;58.26
61870;BME280;47810;42.264;23.826;2023-09-18T09:13:28;94311.63;;;24.32;55.00
61870;BME280;47810;42.264;23.826;2023-09-18T09:15:55;94310.06;;;24.54;56.15
61870;BME280;47810;42.264;23.826;2023-09-18T09:18:25;94325.31;;;24.86;54.55
61870;BME280;47810;42.264;23.826;2023-09-18T09:20:55;94315.88;;;24.82;55.15
61870;BME280;47810;42.264;23.826;2023-09-18T09:23:23;94311.19;;;25.07;53.97
61870;BME280;47810;42.264;23.826;2023-09-18T09:25:48;94313.03;;;25.15;53.99
61870;BME280;47810;42.264;23.826;2023-09-18T09:28:14;94318.00;;;25.26;53.61
61870;BME280;47810;42.264;23.826;2023-09-18T09:30:39;94318.00;;;25.26;51.48
61870;BME280;47810;42.264;23.826;2023-09-18T09:33:05;94310.81;;;25.42;51.48
61870;BME280;47810;42.264;23.826;2023-09-18T09:35:33;94306.69;;;25.54;51.69
61870;BME280;47810;42.264;23.826;2023-09-18T09:38:07;94299.53;;;25.61;50.39
61870;BME280;47810;42.264;23.826;2023-09-18T09:40:33;94312.38;;;26.05;47.70
61870;BME280;47810;42.264;23.826;2023-09-18T09:43:00;94313.53;;;26.11;46.42
61870;BME280;47810;42.264;23.826;2023-09-18T09:45:30;94310.44;;;26.29;48.79
61870;BME280;47810;42.264;23.826;2023-09-18T09:48:05;94304.03;;;26.30;47.91
61870;BME280;47810;42.264;23.826;2023-09-18T09:50:32;94312.53;;;26.27;49.28
61870;BME280;47810;42.264;23.826;2023-09-18T09:52:57;94305.66;;;26.16;49.14
61870;BME280;47810;42.264;23.826;2023-09-18T09:58:03;94301.59;;;25.59;51.10
61870;BME280;47810;42.264;23.826;2023-09-18T10:03:07;94296.22;;;26.50;49.88
61870;BME280;47810;42.264;23.826;2023-09-18T10:05:38;94295.44;;;26.85;50.28
61870;BME280;47810;42.264;23.826;2023-09-18T10:08:06;94303.66;;;27.07;45.96
61870;BME280;47810;42.264;23.826;2023-09-18T10:10:33;94297.75;;;27.18;45.63
61870;BME280;47810;42.264;23.826;2023-09-18T10:13:02;94302.03;;;27.12;44.50
61870;BME280;47810;42.264;23.826;2023-09-18T10:15:31;94298.78;;;27.02;46.33
61870;BME280;47810;42.264;23.826;2023-09-18T10:17:58;94293.38;;;27.17;45.09
61870;BME280;47810;42.264;23.826;2023-09-18T10:20:25;94292.91;;;27.35;45.39
61870;BME280;47810;42.264;23.826;2023-09-18T10:22:54;94282.16;;;27.63;45.22
61870;BME280;47810;42.264;23.826;2023-09-18T10:25:23;94277.00;;;27.90;42.86
61870;BME280;47810;42.264;23.826;2023-09-18T10:27:49;94286.38;;;27.87;44.33
61870;BME280;47810;42.264;23.826;2023-09-18T10:30:17;94285.28;;;27.81;43.59
61870;BME280;47810;42.264;23.826;2023-09-18T10:32:44;94278.66;;;27.69;43.96
61870;BME280;47810;42.264;23.826;2023-09-18T10:35:13;94281.31;;;27.62;43.45
61870;BME280;47810;42.264;23.826;2023-09-18T10:37:39;94281.81;;;27.73;45.65
61870;BME280;47810;42.264;23.826;2023-09-18T10:40:07;94276.16;;;27.89;44.85
61870;BME280;47810;42.264;23.826;2023-09-18T10:42:34;94275.47;;;28.08;44.22
61870;BME280;47810;42.264;23.826;2023-09-18T10:45:00;94271.91;;;27.80;41.61
61870;BME280;47810;42.264;23.826;2023-09-18T10:47:25;94279.13;;;27.51;44.22
61870;BME280;47810;42.264;23.826;2023-09-18T10:49:52;94272.53;;;27.60;44.13
61870;BME280;47810;42.264;23.826;2023-09-18T10:52:18;94259.38;;;27.79;44.25
61870;BME280;47810;42.264;23.826;2023-09-18T10:54:43;94261.16;;;27.72;43.41
61870;BME280;47810;42.264;23.826;2023-09-18T10:57:09;94261.22;;;27.57;43.95
61870;BME280;47810;42.264;23.826;2023-09-18T10:59:42;94259.72;;;27.54;43.91
61870;BME280;47810;42.264;23.826;2023-09-18T11:02:08;94262.59;;;27.68;43.73
61870;BME280;47810;42.264;23.826;2023-09-18T11:04:34;94254.84;;;27.86;43.08
61870;BME280;47810;42.264;23.826;2023-09-18T11:07:01;94251.53;;;27.91;43.31
61870;BME280;47810;42.264;23.826;2023-09-18T11:09:29;94252.47;;;28.04;43.70
61870;BME280;47810;42.264;23.826;2023-09-18T11:17:31;94251.50;;;27.84;44.16
61870;BME280;47810;42.264;23.826;2023-09-18T11:22:31;94248.28;;;28.02;43.90
61870;BME280;47810;42.264;23.826;2023-09-18T11:25:28;94247.69;;;28.06;42.57
61870;BME280;47810;42.264;23.826;2023-09-18T11:27:52;94232.94;;;27.66;40.41
61870;BME280;47810;42.264;23.826;2023-09-18T11:30:19;94234.63;;;27.09;44.72
61870;BME280;47810;42.264;23.826;2023-09-18T11:32:45;94236.06;;;27.05;44.56
61870;BME280;47810;42.264;23.826;2023-09-18T11:35:10;94244.16;;;26.84;43.72
61870;BME280;47810;42.264;23.826;2023-09-18T11:37:37;94237.28;;;26.37;44.07
61870;BME280;47810;42.264;23.826;2023-09-18T11:40:03;94226.81;;;26.19;45.63
61870;BME280;47810;42.264;23.826;2023-09-18T11:42:30;94231.84;;;26.07;44.09
61870;BME280;47810;42.264;23.826;2023-09-18T11:44:55;94235.13;;;25.79;45.28
61870;BME280;47810;42.264;23.826;2023-09-18T11:47:24;94228.59;;;25.36;47.25
61870;BME280;47810;42.264;23.826;2023-09-18T11:49:58;94231.41;;;25.43;47.56
61870;BME280;47810;42.264;23.826;2023-09-18T11:52:25;94220.72;;;25.87;46.84
61870;BME280;47810;42.264;23.826;2023-09-18T11:54:51;94223.56;;;26.23;45.67
61870;BME280;47810;42.264;23.826;2023-09-18T11:57:17;94220.47;;;26.56;44.36
61870;BME280;47810;42.264;23.826;2023-09-18T11:59:44;94205.03;;;26.71;44.42
61870;BME280;47810;42.264;23.826;2023-09-18T12:02:24;94208.81;;;26.92;44.54
61870;BME280;47810;42.264;23.826;2023-09-18T12:04:55;94199.31;;;27.17;44.90
61870;BME280;47810;42.264;23.826;2023-09-18T12:07:21;94204.53;;;27.19;44.59
61870;BME280;47810;42.264;23.826;2023-09-18T12:09:48;94198.41;;;26.95;44.68
61870;BME280;47810;42.264;23.826;2023-09-18T12:12:14;94192.69;;;27.05;43.72
61870;BME280;47810;42.264;23.826;2023-09-18T12:14:40;94196.41;;;26.83;44.68
61870;BME280;47810;42.264;23.826;2023-09-18T12:17:12;94190.56;;;27.01;44.42
61870;BME280;47810;42.264;23.826;2023-09-18T12:19:39;94197.13;;;26.91;43.62
61870;BME280;47810;42.264;23.826;2023-09-18T12:22:22;94189.41;;;26.74;44.54
61870;BME280;47810;42.264;23.826;2023-09-18T12:24:47;94186.72;;;26.74;44.91
61870;BME280;47810;42.264;23.826;2023-09-18T12:27:13;94190.75;;;26.78;43.79
61870;BME280;47810;42.264;23.826;2023-09-18T12:29:38;94185.03;;;26.73;44.11
61870;BME280;47810;42.264;23.826;2023-09-18T12:32:08;94191.34;;;26.58;43.16
61870;BME280;47810;42.264;23.826;2023-09-18T12:34:34;94187.50;;;26.53;46.99
61870;BME280;47810;42.264;23.826;2023-09-18T12:36:59;94186.56;;;26.60;43.10
61870;BME280;47810;42.264;23.826;2023-09-18T12:39:31;94187.97;;;26.56;45.90
61870;BME280;47810;42.264;23.826;2023-09-18T12:41:56;94182.94;;;26.53;44.47
61870;BME280;47810;42.264;23.826;2023-09-18T12:44:22;94178.72;;;26.51;45.85
61870;BME280;47810;42.264;23.826;2023-09-18T12:46:48;94173.84;;;26.61;42.67
61870;BME280;47810;42.264;23.826;2023-09-18T12:51:41;94177.97;;;26.57;43.46
61870;BME280;47810;42.264;23.826;2023-09-18T12:54:07;94180.50;;;26.58;43.36
61870;BME280;47810;42.264;23.826;2023-09-18T12:56:32;94177.13;;;26.56;44.33
61870;BME280;47810;42.264;23.826;2023-09-18T12:58:58;94169.38;;;26.68;43.21
61870;BME280;47810;42.264;23.826;2023-09-18T13:01:24;94172.19;;;26.60;43.92
61870;BME280;47810;42.264;23.826;2023-09-18T13:03:50;94172.81;;;26.47;44.50
61870;BME280;47810;42.264;23.826;2023-09-18T13:06:19;94175.38;;;26.34;42.75